sensor_id;sensor_type;location;lat;lon;timestamp;P1;durP1;ratioP1;P2;durP2;ratioP2
11338;SDS011;5724;42.684;23.252;2023-05-15T00:00:59;11.10;;;10.20;;
11338;SDS011;5724;42.684;23.252;2023-05-15T00:03:25;10.48;;;9.88;;
11338;SDS011;5724;42.684;23.252;2023-05-15T00:05:51;10.63;;;9.88;;
11338;SDS011;5724;42.684;23.252;2023-05-15T00:08:16;10.80;;;10.02;;
11338;SDS011;5724;42.684;23.252;2023-05-15T00:10:42;11.05;;;10.30;;
11338;SDS011;5724;42.684;23.252;2023-05-15T00:13:07;10.80;;;10.00;;
11338;SDS011;5724;42.684;23.252;2023-05-15T00:15:33;10.48;;;9.77;;
11338;SDS011;5724;42.684;23.252;2023-05-15T00:17:59;10.75;;;10.05;;
11338;SDS011;5724;42.684;23.252;2023-05-15T00:20:24;11.07;;;10.18;;
11338;SDS011;5724;42.684;23.252;2023-05-15T00:22:50;11.90;;;10.80;;
11338;SDS011;5724;42.684;23.252;2023-05-15T00:25:15;10.98;;;10.27;;
11338;SDS011;5724;42.684;23.252;2023-05-15T00:27:43;11.90;;;11.20;;
11338;SDS011;5724;42.684;23.252;2023-05-15T00:30:09;11.85;;;11.02;;
11338;SDS011;5724;42.684;23.252;2023-05-15T00:32:35;11.77;;;10.55;;
11338;SDS011;5724;42.684;23.252;2023-05-15T00:35:00;11.90;;;11.10;;
11338;SDS011;5724;42.684;23.252;2023-05-15T00:37:26;12.38;;;11.45;;
11338;SDS011;5724;42.684;23.252;2023-05-15T00:39:51;12.15;;;11.13;;
11338;SDS011;5724;42.684;23.252;2023-05-15T00:42:17;11.30;;;10.32;;
11338;SDS011;5724;42.684;23.252;2023-05-15T00:44:43;11.48;;;10.77;;
11338;SDS011;5724;42.684;23.252;2023-05-15T00:47:09;10.48;;;9.77;;
11338;SDS011;5724;42.684;23.252;2023-05-15T00:49:36;10.77;;;10.07;;
11338;SDS011;5724;42.684;23.252;2023-05-15T00:52:02;10.75;;;10.02;;
11338;SDS011;5724;42.684;23.252;2023-05-15T00:54:28;10.55;;;9.93;;
11338;SDS011;5724;42.684;23.252;2023-05-15T00:56:55;10.85;;;10.13;;
11338;SDS011;5724;42.684;23.252;2023-05-15T00:59:23;11.45;;;10.55;;
11338;SDS011;5724;42.684;23.252;2023-05-15T01:01:51;11.90;;;10.98;;
11338;SDS011;5724;42.684;23.252;2023-05-15T01:04:17;12.18;;;11.38;;
11338;SDS011;5724;42.684;23.252;2023-05-15T01:06:42;13.23;;;12.32;;
11338;SDS011;5724;42.684;23.252;2023-05-15T01:09:08;13.48;;;12.48;;
11338;SDS011;5724;42.684;23.252;2023-05-15T01:11:34;14.00;;;12.95;;
11338;SDS011;5724;42.684;23.252;2023-05-15T01:14:03;14.15;;;13.05;;
11338;SDS011;5724;42.684;23.252;2023-05-15T01:16:30;14.82;;;13.70;;
11338;SDS011;5724;42.684;23.252;2023-05-15T01:18:56;14.80;;;13.63;;
11338;SDS011;5724;42.684;23.252;2023-05-15T01:29:22;12.93;;;11.70;;
11338;SDS011;5724;42.684;23.252;2023-05-15T01:32:07;12.80;;;11.82;;
11338;SDS011;5724;42.684;23.252;2023-05-15T01:34:47;12.93;;;12.13;;
11338;SDS011;5724;42.684;23.252;2023-05-15T01:37:23;12.60;;;11.60;;
11338;SDS011;5724;42.684;23.252;2023-05-15T01:39:52;12.60;;;11.65;;
11338;SDS011;5724;42.684;23.252;2023-05-15T01:42:19;13.23;;;12.02;;
11338;SDS011;5724;42.684;23.252;2023-05-15T01:44:53;12.95;;;11.95;;
11338;SDS011;5724;42.684;23.252;2023-05-15T01:47:29;12.57;;;11.52;;
11338;SDS011;5724;42.684;23.252;2023-05-15T01:49:59;12.63;;;11.48;;
11338;SDS011;5724;42.684;23.252;2023-05-15T01:52:29;12.20;;;11.40;;
11338;SDS011;5724;42.684;23.252;2023-05-15T01:54:59;13.27;;;12.18;;
11338;SDS011;5724;42.684;23.252;2023-05-15T01:57:26;14.65;;;13.32;;
11338;SDS011;5724;42.684;23.252;2023-05-15T01:59:52;13.43;;;12.38;;
11338;SDS011;5724;42.684;23.252;2023-05-15T02:02:19;13.73;;;12.63;;
11338;SDS011;5724;42.684;23.252;2023-05-15T02:04:45;13.40;;;12.32;;
11338;SDS011;5724;42.684;23.252;2023-05-15T02:07:13;13.63;;;12.52;;
11338;SDS011;5724;42.684;23.252;2023-05-15T02:09:39;13.10;;;11.98;;
11338;SDS011;5724;42.684;23.252;2023-05-15T02:12:06;12.18;;;11.05;;
11338;SDS011;5724;42.684;23.252;2023-05-15T02:14:33;11.43;;;10.43;;
11338;SDS011;5724;42.684;23.252;2023-05-15T02:16:59;11.70;;;10.73;;
11338;SDS011;5724;42.684;23.252;2023-05-15T02:19:25;10.98;;;10.20;;
11338;SDS011;5724;42.684;23.252;2023-05-15T02:21:50;12.32;;;11.32;;
11338;SDS011;5724;42.684;23.252;2023-05-15T02:24:16;11.65;;;10.80;;
11338;SDS011;5724;42.684;23.252;2023-05-15T02:27:02;11.82;;;10.82;;
11338;SDS011;5724;42.684;23.252;2023-05-15T02:29:54;12.77;;;11.68;;
11338;SDS011;5724;42.684;23.252;2023-05-15T02:32:46;12.40;;;11.40;;
11338;SDS011;5724;42.684;23.252;2023-05-15T02:35:38;11.50;;;10.70;;
11338;SDS011;5724;42.684;23.252;2023-05-15T02:38:14;14.02;;;12.63;;
11338;SDS011;5724;42.684;23.252;2023-05-15T02:40:43;15.00;;;13.88;;
11338;SDS011;5724;42.684;23.252;2023-05-15T02:43:10;15.35;;;14.18;;
11338;SDS011;5724;42.684;23.252;2023-05-15T02:45:38;15.20;;;13.75;;
11338;SDS011;5724;42.684;23.252;2023-05-15T02:48:05;15.23;;;13.98;;
11338;SDS011;5724;42.684;23.252;2023-05-15T02:50:31;14.20;;;13.02;;
11338;SDS011;5724;42.684;23.252;2023-05-15T02:53:03;15.18;;;14.07;;
11338;SDS011;5724;42.684;23.252;2023-05-15T02:55:30;16.02;;;14.93;;
11338;SDS011;5724;42.684;23.252;2023-05-15T02:57:56;16.15;;;14.85;;
11338;SDS011;5724;42.684;23.252;2023-05-15T03:00:22;15.23;;;14.10;;
11338;SDS011;5724;42.684;23.252;2023-05-15T03:02:47;16.58;;;15.05;;
11338;SDS011;5724;42.684;23.252;2023-05-15T03:05:13;17.08;;;15.60;;
11338;SDS011;5724;42.684;23.252;2023-05-15T03:07:38;16.60;;;15.27;;
11338;SDS011;5724;42.684;23.252;2023-05-15T03:10:05;17.42;;;16.02;;
11338;SDS011;5724;42.684;23.252;2023-05-15T03:12:31;17.17;;;15.60;;
11338;SDS011;5724;42.684;23.252;2023-05-15T03:14:57;17.45;;;16.05;;
11338;SDS011;5724;42.684;23.252;2023-05-15T03:17:22;17.63;;;16.17;;
11338;SDS011;5724;42.684;23.252;2023-05-15T03:19:48;17.00;;;15.57;;
11338;SDS011;5724;42.684;23.252;2023-05-15T03:22:13;17.70;;;16.20;;
11338;SDS011;5724;42.684;23.252;2023-05-15T03:24:39;16.30;;;14.90;;
11338;SDS011;5724;42.684;23.252;2023-05-15T03:27:04;16.80;;;15.50;;
11338;SDS011;5724;42.684;23.252;2023-05-15T03:29:30;16.88;;;15.32;;
11338;SDS011;5724;42.684;23.252;2023-05-15T03:31:55;15.43;;;14.13;;
11338;SDS011;5724;42.684;23.252;2023-05-15T03:34:21;15.88;;;14.50;;
11338;SDS011;5724;42.684;23.252;2023-05-15T03:36:46;16.70;;;15.30;;
11338;SDS011;5724;42.684;23.252;2023-05-15T03:39:12;17.95;;;16.45;;
11338;SDS011;5724;42.684;23.252;2023-05-15T03:41:37;18.40;;;16.85;;
11338;SDS011;5724;42.684;23.252;2023-05-15T03:44:03;18.50;;;16.95;;
11338;SDS011;5724;42.684;23.252;2023-05-15T03:46:28;19.77;;;17.90;;
11338;SDS011;5724;42.684;23.252;2023-05-15T03:48:54;17.67;;;16.23;;
11338;SDS011;5724;42.684;23.252;2023-05-15T03:51:20;17.88;;;16.48;;
11338;SDS011;5724;42.684;23.252;2023-05-15T03:53:46;17.90;;;16.30;;
11338;SDS011;5724;42.684;23.252;2023-05-15T03:56:11;18.20;;;16.67;;
11338;SDS011;5724;42.684;23.252;2023-05-15T03:58:37;19.50;;;17.70;;
11338;SDS011;5724;42.684;23.252;2023-05-15T04:01:02;19.85;;;18.08;;
11338;SDS011;5724;42.684;23.252;2023-05-15T04:03:28;19.60;;;17.83;;
11338;SDS011;5724;42.684;23.252;2023-05-15T04:05:53;18.35;;;16.83;;
11338;SDS011;5724;42.684;23.252;2023-05-15T04:08:19;18.52;;;16.85;;
11338;SDS011;5724;42.684;23.252;2023-05-15T04:10:44;18.38;;;16.83;;
11338;SDS011;5724;42.684;23.252;2023-05-15T04:13:09;17.70;;;16.33;;
11338;SDS011;5724;42.684;23.252;2023-05-15T04:15:35;21.42;;;19.67;;
11338;SDS011;5724;42.684;23.252;2023-05-15T04:18:00;19.90;;;17.90;;
11338;SDS011;5724;42.684;23.252;2023-05-15T04:20:26;19.08;;;17.38;;
11338;SDS011;5724;42.684;23.252;2023-05-15T04:22:51;20.13;;;18.50;;
11338;SDS011;5724;42.684;23.252;2023-05-15T04:25:17;18.60;;;17.15;;
11338;SDS011;5724;42.684;23.252;2023-05-15T04:27:44;20.15;;;18.55;;
11338;SDS011;5724;42.684;23.252;2023-05-15T04:30:10;20.23;;;18.42;;
11338;SDS011;5724;42.684;23.252;2023-05-15T04:32:37;19.77;;;18.23;;
11338;SDS011;5724;42.684;23.252;2023-05-15T04:35:04;18.92;;;17.42;;
11338;SDS011;5724;42.684;23.252;2023-05-15T04:37:31;20.42;;;18.73;;
11338;SDS011;5724;42.684;23.252;2023-05-15T04:39:57;20.25;;;18.45;;
11338;SDS011;5724;42.684;23.252;2023-05-15T04:42:22;19.85;;;18.15;;
11338;SDS011;5724;42.684;23.252;2023-05-15T04:44:47;22.38;;;20.58;;
11338;SDS011;5724;42.684;23.252;2023-05-15T04:47:13;22.15;;;20.38;;
11338;SDS011;5724;42.684;23.252;2023-05-15T04:49:39;25.67;;;20.77;;
11338;SDS011;5724;42.684;23.252;2023-05-15T04:52:05;24.63;;;22.33;;
11338;SDS011;5724;42.684;23.252;2023-05-15T04:54:30;23.30;;;21.30;;
11338;SDS011;5724;42.684;23.252;2023-05-15T04:56:56;23.73;;;21.63;;
11338;SDS011;5724;42.684;23.252;2023-05-15T04:59:22;24.15;;;22.08;;
11338;SDS011;5724;42.684;23.252;2023-05-15T05:01:49;22.83;;;20.75;;
11338;SDS011;5724;42.684;23.252;2023-05-15T05:04:17;22.85;;;20.50;;
11338;SDS011;5724;42.684;23.252;2023-05-15T05:06:46;22.10;;;20.13;;
11338;SDS011;5724;42.684;23.252;2023-05-15T05:09:12;22.00;;;20.10;;
11338;SDS011;5724;42.684;23.252;2023-05-15T05:11:38;21.98;;;19.90;;
11338;SDS011;5724;42.684;23.252;2023-05-15T05:14:03;21.02;;;19.23;;
11338;SDS011;5724;42.684;23.252;2023-05-15T05:16:29;20.02;;;18.10;;
11338;SDS011;5724;42.684;23.252;2023-05-15T05:18:55;18.15;;;16.63;;
11338;SDS011;5724;42.684;23.252;2023-05-15T05:21:20;19.08;;;17.30;;
11338;SDS011;5724;42.684;23.252;2023-05-15T05:23:46;18.00;;;16.40;;
11338;SDS011;5724;42.684;23.252;2023-05-15T05:26:11;18.63;;;17.17;;
11338;SDS011;5724;42.684;23.252;2023-05-15T05:28:37;16.23;;;14.93;;
11338;SDS011;5724;42.684;23.252;2023-05-15T05:31:02;17.17;;;15.63;;
11338;SDS011;5724;42.684;23.252;2023-05-15T05:33:27;18.70;;;16.95;;
11338;SDS011;5724;42.684;23.252;2023-05-15T05:35:53;17.40;;;15.95;;
11338;SDS011;5724;42.684;23.252;2023-05-15T05:38:19;18.23;;;16.42;;
11338;SDS011;5724;42.684;23.252;2023-05-15T05:40:45;17.75;;;16.35;;
11338;SDS011;5724;42.684;23.252;2023-05-15T05:43:10;16.38;;;15.13;;
11338;SDS011;5724;42.684;23.252;2023-05-15T05:45:36;17.08;;;15.48;;
11338;SDS011;5724;42.684;23.252;2023-05-15T05:48:01;14.77;;;13.68;;
11338;SDS011;5724;42.684;23.252;2023-05-15T05:50:26;15.02;;;13.70;;
11338;SDS011;5724;42.684;23.252;2023-05-15T05:52:52;15.25;;;13.77;;
11338;SDS011;5724;42.684;23.252;2023-05-15T05:55:17;14.00;;;12.90;;
11338;SDS011;5724;42.684;23.252;2023-05-15T05:57:43;13.38;;;12.32;;
11338;SDS011;5724;42.684;23.252;2023-05-15T06:00:08;16.15;;;14.85;;
11338;SDS011;5724;42.684;23.252;2023-05-15T06:02:35;13.45;;;12.35;;
11338;SDS011;5724;42.684;23.252;2023-05-15T06:05:02;13.30;;;12.40;;
11338;SDS011;5724;42.684;23.252;2023-05-15T06:07:28;13.95;;;12.45;;
11338;SDS011;5724;42.684;23.252;2023-05-15T06:09:54;12.30;;;11.32;;
11338;SDS011;5724;42.684;23.252;2023-05-15T06:12:19;12.27;;;11.30;;
11338;SDS011;5724;42.684;23.252;2023-05-15T06:14:46;12.80;;;11.88;;
11338;SDS011;5724;42.684;23.252;2023-05-15T06:17:11;12.88;;;11.93;;
11338;SDS011;5724;42.684;23.252;2023-05-15T06:19:37;12.63;;;11.73;;
11338;SDS011;5724;42.684;23.252;2023-05-15T06:22:02;12.95;;;11.85;;
11338;SDS011;5724;42.684;23.252;2023-05-15T06:24:28;16.23;;;14.68;;
11338;SDS011;5724;42.684;23.252;2023-05-15T06:26:53;13.13;;;11.98;;
11338;SDS011;5724;42.684;23.252;2023-05-15T06:29:19;16.88;;;15.50;;
11338;SDS011;5724;42.684;23.252;2023-05-15T06:31:45;15.70;;;14.32;;
11338;SDS011;5724;42.684;23.252;2023-05-15T06:34:10;21.42;;;19.40;;
11338;SDS011;5724;42.684;23.252;2023-05-15T06:36:36;14.23;;;12.73;;
11338;SDS011;5724;42.684;23.252;2023-05-15T06:39:01;14.07;;;13.02;;
11338;SDS011;5724;42.684;23.252;2023-05-15T06:41:27;11.93;;;11.13;;
11338;SDS011;5724;42.684;23.252;2023-05-15T06:43:52;12.43;;;11.52;;
11338;SDS011;5724;42.684;23.252;2023-05-15T06:46:19;13.88;;;12.70;;
11338;SDS011;5724;42.684;23.252;2023-05-15T06:48:45;12.57;;;11.63;;
11338;SDS011;5724;42.684;23.252;2023-05-15T06:51:11;17.88;;;16.15;;
11338;SDS011;5724;42.684;23.252;2023-05-15T06:53:37;13.10;;;12.20;;
11338;SDS011;5724;42.684;23.252;2023-05-15T06:56:02;10.32;;;9.52;;
11338;SDS011;5724;42.684;23.252;2023-05-15T06:58:28;16.63;;;15.15;;
11338;SDS011;5724;42.684;23.252;2023-05-15T07:00:53;12.52;;;11.32;;
11338;SDS011;5724;42.684;23.252;2023-05-15T07:03:18;11.32;;;10.60;;
11338;SDS011;5724;42.684;23.252;2023-05-15T07:05:44;12.85;;;11.80;;
11338;SDS011;5724;42.684;23.252;2023-05-15T07:08:10;14.32;;;12.95;;
11338;SDS011;5724;42.684;23.252;2023-05-15T07:10:35;17.48;;;15.88;;
11338;SDS011;5724;42.684;23.252;2023-05-15T07:13:00;16.00;;;14.63;;
11338;SDS011;5724;42.684;23.252;2023-05-15T07:15:26;13.50;;;12.43;;
11338;SDS011;5724;42.684;23.252;2023-05-15T07:17:52;12.75;;;11.70;;
11338;SDS011;5724;42.684;23.252;2023-05-15T07:20:17;9.98;;;9.15;;
11338;SDS011;5724;42.684;23.252;2023-05-15T07:22:43;9.60;;;8.65;;
11338;SDS011;5724;42.684;23.252;2023-05-15T07:25:08;9.20;;;8.50;;
11338;SDS011;5724;42.684;23.252;2023-05-15T07:27:34;11.50;;;10.63;;
11338;SDS011;5724;42.684;23.252;2023-05-15T07:30:00;12.65;;;11.45;;
11338;SDS011;5724;42.684;23.252;2023-05-15T07:32:28;13.00;;;11.90;;
11338;SDS011;5724;42.684;23.252;2023-05-15T07:34:54;13.98;;;12.77;;
11338;SDS011;5724;42.684;23.252;2023-05-15T07:37:20;12.68;;;11.38;;
11338;SDS011;5724;42.684;23.252;2023-05-15T07:39:45;13.93;;;12.13;;
11338;SDS011;5724;42.684;23.252;2023-05-15T07:42:11;13.10;;;11.88;;
11338;SDS011;5724;42.684;23.252;2023-05-15T07:44:36;11.65;;;10.75;;
11338;SDS011;5724;42.684;23.252;2023-05-15T07:47:02;12.88;;;11.63;;
11338;SDS011;5724;42.684;23.252;2023-05-15T07:49:27;13.18;;;11.93;;
11338;SDS011;5724;42.684;23.252;2023-05-15T07:51:53;14.82;;;12.45;;
11338;SDS011;5724;42.684;23.252;2023-05-15T07:54:18;13.48;;;12.20;;
11338;SDS011;5724;42.684;23.252;2023-05-15T07:56:44;13.95;;;12.45;;
11338;SDS011;5724;42.684;23.252;2023-05-15T07:59:10;13.18;;;12.05;;
11338;SDS011;5724;42.684;23.252;2023-05-15T08:01:35;13.95;;;12.75;;
11338;SDS011;5724;42.684;23.252;2023-05-15T08:04:01;13.63;;;12.40;;
11338;SDS011;5724;42.684;23.252;2023-05-15T08:06:27;13.75;;;12.35;;
11338;SDS011;5724;42.684;23.252;2023-05-15T08:08:52;14.10;;;12.75;;
11338;SDS011;5724;42.684;23.252;2023-05-15T08:11:18;15.00;;;13.80;;
11338;SDS011;5724;42.684;23.252;2023-05-15T08:13:43;15.02;;;13.60;;
11338;SDS011;5724;42.684;23.252;2023-05-15T08:16:09;16.13;;;14.73;;
11338;SDS011;5724;42.684;23.252;2023-05-15T08:18:34;15.05;;;13.68;;
11338;SDS011;5724;42.684;23.252;2023-05-15T08:20:59;17.75;;;16.25;;
11338;SDS011;5724;42.684;23.252;2023-05-15T08:23:25;17.88;;;16.27;;
11338;SDS011;5724;42.684;23.252;2023-05-15T08:25:50;20.00;;;18.02;;
11338;SDS011;5724;42.684;23.252;2023-05-15T08:28:16;16.40;;;15.00;;
11338;SDS011;5724;42.684;23.252;2023-05-15T08:30:41;17.83;;;16.33;;
11338;SDS011;5724;42.684;23.252;2023-05-15T08:33:07;23.67;;;21.48;;
11338;SDS011;5724;42.684;23.252;2023-05-15T08:35:32;20.00;;;18.13;;
11338;SDS011;5724;42.684;23.252;2023-05-15T08:37:57;19.30;;;17.50;;
11338;SDS011;5724;42.684;23.252;2023-05-15T08:40:23;19.25;;;17.30;;
11338;SDS011;5724;42.684;23.252;2023-05-15T08:42:51;18.25;;;16.58;;
11338;SDS011;5724;42.684;23.252;2023-05-15T08:45:19;17.08;;;15.38;;
11338;SDS011;5724;42.684;23.252;2023-05-15T08:47:45;17.52;;;15.95;;
11338;SDS011;5724;42.684;23.252;2023-05-15T08:50:14;18.55;;;16.75;;
11338;SDS011;5724;42.684;23.252;2023-05-15T08:52:41;16.58;;;15.23;;
11338;SDS011;5724;42.684;23.252;2023-05-15T08:55:09;16.92;;;15.23;;
11338;SDS011;5724;42.684;23.252;2023-05-15T08:57:35;16.17;;;14.65;;
11338;SDS011;5724;42.684;23.252;2023-05-15T09:00:02;17.17;;;15.57;;
11338;SDS011;5724;42.684;23.252;2023-05-15T09:02:32;16.58;;;15.02;;
11338;SDS011;5724;42.684;23.252;2023-05-15T09:04:57;16.25;;;14.85;;
11338;SDS011;5724;42.684;23.252;2023-05-15T09:07:23;16.40;;;15.02;;
11338;SDS011;5724;42.684;23.252;2023-05-15T09:09:49;16.90;;;15.40;;
11338;SDS011;5724;42.684;23.252;2023-05-15T09:12:15;17.15;;;15.35;;
11338;SDS011;5724;42.684;23.252;2023-05-15T09:14:42;16.45;;;15.02;;
11338;SDS011;5724;42.684;23.252;2023-05-15T09:17:10;17.35;;;15.85;;
11338;SDS011;5724;42.684;23.252;2023-05-15T09:19:40;14.82;;;13.50;;
11338;SDS011;5724;42.684;23.252;2023-05-15T09:22:18;15.25;;;13.85;;
11338;SDS011;5724;42.684;23.252;2023-05-15T09:24:50;16.55;;;14.10;;
11338;SDS011;5724;42.684;23.252;2023-05-15T09:27:17;15.90;;;14.32;;
11338;SDS011;5724;42.684;23.252;2023-05-15T09:29:44;15.60;;;14.13;;
11338;SDS011;5724;42.684;23.252;2023-05-15T09:32:10;15.45;;;14.15;;
11338;SDS011;5724;42.684;23.252;2023-05-15T09:34:38;15.00;;;13.85;;
11338;SDS011;5724;42.684;23.252;2023-05-15T09:37:06;14.25;;;13.13;;
11338;SDS011;5724;42.684;23.252;2023-05-15T09:39:34;15.77;;;14.30;;
11338;SDS011;5724;42.684;23.252;2023-05-15T09:42:09;13.85;;;12.65;;
11338;SDS011;5724;42.684;23.252;2023-05-15T09:44:39;14.75;;;13.40;;
11338;SDS011;5724;42.684;23.252;2023-05-15T09:47:06;16.42;;;14.82;;
11338;SDS011;5724;42.684;23.252;2023-05-15T09:49:34;15.73;;;13.80;;
11338;SDS011;5724;42.684;23.252;2023-05-15T09:52:00;16.58;;;14.95;;
11338;SDS011;5724;42.684;23.252;2023-05-15T09:54:26;17.08;;;15.20;;
11338;SDS011;5724;42.684;23.252;2023-05-15T09:56:52;15.32;;;13.98;;
11338;SDS011;5724;42.684;23.252;2023-05-15T09:59:18;16.40;;;14.40;;
11338;SDS011;5724;42.684;23.252;2023-05-15T10:01:46;16.05;;;14.27;;
11338;SDS011;5724;42.684;23.252;2023-05-15T10:04:13;16.27;;;14.68;;
11338;SDS011;5724;42.684;23.252;2023-05-15T10:06:40;15.68;;;14.18;;
11338;SDS011;5724;42.684;23.252;2023-05-15T10:09:08;17.42;;;15.05;;
11338;SDS011;5724;42.684;23.252;2023-05-15T10:11:38;15.57;;;14.05;;
11338;SDS011;5724;42.684;23.252;2023-05-15T10:14:06;15.85;;;14.38;;
11338;SDS011;5724;42.684;23.252;2023-05-15T10:16:34;14.45;;;13.07;;
11338;SDS011;5724;42.684;23.252;2023-05-15T10:19:05;14.45;;;13.25;;
11338;SDS011;5724;42.684;23.252;2023-05-15T10:21:35;14.73;;;13.50;;
11338;SDS011;5724;42.684;23.252;2023-05-15T10:24:03;14.70;;;13.38;;
11338;SDS011;5724;42.684;23.252;2023-05-15T10:26:35;14.45;;;13.07;;
11338;SDS011;5724;42.684;23.252;2023-05-15T10:29:07;14.23;;;13.00;;
11338;SDS011;5724;42.684;23.252;2023-05-15T10:31:34;14.93;;;13.60;;
11338;SDS011;5724;42.684;23.252;2023-05-15T10:34:03;14.65;;;13.43;;
11338;SDS011;5724;42.684;23.252;2023-05-15T10:36:32;14.73;;;13.32;;
11338;SDS011;5724;42.684;23.252;2023-05-15T10:38:59;14.65;;;13.45;;
11338;SDS011;5724;42.684;23.252;2023-05-15T10:41:29;16.92;;;15.25;;
11338;SDS011;5724;42.684;23.252;2023-05-15T10:43:58;14.57;;;13.32;;
11338;SDS011;5724;42.684;23.252;2023-05-15T10:46:25;14.65;;;13.40;;
11338;SDS011;5724;42.684;23.252;2023-05-15T10:48:51;15.32;;;13.80;;
11338;SDS011;5724;42.684;23.252;2023-05-15T10:51:18;14.65;;;13.27;;
11338;SDS011;5724;42.684;23.252;2023-05-15T10:53:53;15.60;;;14.15;;
11338;SDS011;5724;42.684;23.252;2023-05-15T10:56:19;15.43;;;14.13;;
11338;SDS011;5724;42.684;23.252;2023-05-15T10:58:48;15.75;;;14.15;;
11338;SDS011;5724;42.684;23.252;2023-05-15T11:01:25;14.85;;;13.35;;
11338;SDS011;5724;42.684;23.252;2023-05-15T11:04:03;15.77;;;14.48;;
11338;SDS011;5724;42.684;23.252;2023-05-15T11:06:42;16.38;;;14.90;;
11338;SDS011;5724;42.684;23.252;2023-05-15T11:09:32;16.80;;;15.18;;
11338;SDS011;5724;42.684;23.252;2023-05-15T11:12:02;14.75;;;13.57;;
11338;SDS011;5724;42.684;23.252;2023-05-15T11:14:29;14.43;;;13.05;;
11338;SDS011;5724;42.684;23.252;2023-05-15T11:16:59;13.50;;;12.30;;
11338;SDS011;5724;42.684;23.252;2023-05-15T11:19:36;15.55;;;12.77;;
11338;SDS011;5724;42.684;23.252;2023-05-15T11:24:46;14.13;;;12.77;;
11338;SDS011;5724;42.684;23.252;2023-05-15T11:27:17;14.95;;;13.45;;
11338;SDS011;5724;42.684;23.252;2023-05-15T11:32:30;13.70;;;12.30;;
11338;SDS011;5724;42.684;23.252;2023-05-15T11:35:20;14.73;;;12.90;;
11338;SDS011;5724;42.684;23.252;2023-05-15T11:37:46;14.05;;;12.65;;
11338;SDS011;5724;42.684;23.252;2023-05-15T11:40:17;13.68;;;12.55;;
11338;SDS011;5724;42.684;23.252;2023-05-15T11:43:03;15.25;;;13.02;;
11338;SDS011;5724;42.684;23.252;2023-05-15T11:45:34;15.80;;;14.30;;
11338;SDS011;5724;42.684;23.252;2023-05-15T11:48:02;18.02;;;15.55;;
11338;SDS011;5724;42.684;23.252;2023-05-15T11:50:30;15.35;;;13.90;;
11338;SDS011;5724;42.684;23.252;2023-05-15T11:53:00;14.15;;;12.90;;
11338;SDS011;5724;42.684;23.252;2023-05-15T11:55:29;14.13;;;12.90;;
11338;SDS011;5724;42.684;23.252;2023-05-15T11:57:56;14.38;;;13.07;;
11338;SDS011;5724;42.684;23.252;2023-05-15T12:00:21;13.57;;;12.07;;
11338;SDS011;5724;42.684;23.252;2023-05-15T12:02:47;13.30;;;12.05;;
11338;SDS011;5724;42.684;23.252;2023-05-15T12:05:12;13.95;;;12.65;;
11338;SDS011;5724;42.684;23.252;2023-05-15T12:07:39;14.93;;;12.50;;
11338;SDS011;5724;42.684;23.252;2023-05-15T12:10:08;13.82;;;12.52;;
11338;SDS011;5724;42.684;23.252;2023-05-15T12:12:35;19.58;;;12.20;;
11338;SDS011;5724;42.684;23.252;2023-05-15T12:15:03;13.43;;;12.13;;
11338;SDS011;5724;42.684;23.252;2023-05-15T12:17:30;13.18;;;11.68;;
11338;SDS011;5724;42.684;23.252;2023-05-15T12:19:57;12.52;;;11.30;;
11338;SDS011;5724;42.684;23.252;2023-05-15T12:22:24;13.82;;;11.70;;
11338;SDS011;5724;42.684;23.252;2023-05-15T12:24:49;13.82;;;12.45;;
11338;SDS011;5724;42.684;23.252;2023-05-15T12:27:15;14.30;;;10.93;;
11338;SDS011;5724;42.684;23.252;2023-05-15T12:29:42;12.18;;;11.07;;
11338;SDS011;5724;42.684;23.252;2023-05-15T12:32:08;12.35;;;11.18;;
11338;SDS011;5724;42.684;23.252;2023-05-15T12:34:34;11.98;;;10.88;;
11338;SDS011;5724;42.684;23.252;2023-05-15T12:37:00;13.23;;;11.60;;
11338;SDS011;5724;42.684;23.252;2023-05-15T12:39:26;11.32;;;10.43;;
11338;SDS011;5724;42.684;23.252;2023-05-15T12:41:52;13.98;;;10.35;;
11338;SDS011;5724;42.684;23.252;2023-05-15T12:44:20;11.77;;;10.65;;
11338;SDS011;5724;42.684;23.252;2023-05-15T12:46:46;11.93;;;10.77;;
11338;SDS011;5724;42.684;23.252;2023-05-15T12:49:12;12.80;;;11.25;;
11338;SDS011;5724;42.684;23.252;2023-05-15T12:51:43;14.10;;;11.48;;
11338;SDS011;5724;42.684;23.252;2023-05-15T12:54:18;11.77;;;10.77;;
11338;SDS011;5724;42.684;23.252;2023-05-15T12:56:45;11.40;;;10.32;;
11338;SDS011;5724;42.684;23.252;2023-05-15T12:59:13;11.23;;;10.10;;
11338;SDS011;5724;42.684;23.252;2023-05-15T13:01:40;16.35;;;10.20;;
11338;SDS011;5724;42.684;23.252;2023-05-15T13:04:08;19.85;;;10.45;;
11338;SDS011;5724;42.684;23.252;2023-05-15T13:06:36;12.05;;;10.68;;
11338;SDS011;5724;42.684;23.252;2023-05-15T13:09:02;13.68;;;10.55;;
11338;SDS011;5724;42.684;23.252;2023-05-15T13:11:29;12.50;;;10.18;;
11338;SDS011;5724;42.684;23.252;2023-05-15T13:13:55;13.57;;;11.48;;
11338;SDS011;5724;42.684;23.252;2023-05-15T13:16:25;11.88;;;10.77;;
11338;SDS011;5724;42.684;23.252;2023-05-15T13:18:53;13.32;;;10.70;;
11338;SDS011;5724;42.684;23.252;2023-05-15T13:21:21;11.15;;;10.25;;
11338;SDS011;5724;42.684;23.252;2023-05-15T13:23:46;12.65;;;10.20;;
11338;SDS011;5724;42.684;23.252;2023-05-15T13:26:12;12.50;;;11.18;;
11338;SDS011;5724;42.684;23.252;2023-05-15T13:28:37;12.02;;;10.82;;
11338;SDS011;5724;42.684;23.252;2023-05-15T13:31:03;11.57;;;10.35;;
11338;SDS011;5724;42.684;23.252;2023-05-15T13:33:29;16.25;;;10.82;;
11338;SDS011;5724;42.684;23.252;2023-05-15T13:35:55;14.80;;;10.48;;
11338;SDS011;5724;42.684;23.252;2023-05-15T13:38:21;14.27;;;10.00;;
11338;SDS011;5724;42.684;23.252;2023-05-15T13:40:47;11.27;;;9.35;;
11338;SDS011;5724;42.684;23.252;2023-05-15T13:43:12;9.85;;;8.95;;
11338;SDS011;5724;42.684;23.252;2023-05-15T13:45:37;10.60;;;9.13;;
11338;SDS011;5724;42.684;23.252;2023-05-15T13:48:03;9.73;;;8.80;;
11338;SDS011;5724;42.684;23.252;2023-05-15T13:50:29;9.95;;;9.02;;
11338;SDS011;5724;42.684;23.252;2023-05-15T13:52:54;9.60;;;8.75;;
11338;SDS011;5724;42.684;23.252;2023-05-15T13:55:20;9.02;;;8.10;;
11338;SDS011;5724;42.684;23.252;2023-05-15T13:57:45;9.02;;;8.30;;
11338;SDS011;5724;42.684;23.252;2023-05-15T14:00:11;9.05;;;8.40;;
11338;SDS011;5724;42.684;23.252;2023-05-15T14:02:41;9.60;;;8.85;;
11338;SDS011;5724;42.684;23.252;2023-05-15T14:05:08;10.73;;;9.52;;
11338;SDS011;5724;42.684;23.252;2023-05-15T14:07:35;9.88;;;9.07;;
11338;SDS011;5724;42.684;23.252;2023-05-15T14:10:01;10.60;;;9.50;;
11338;SDS011;5724;42.684;23.252;2023-05-15T14:12:27;10.38;;;9.13;;
11338;SDS011;5724;42.684;23.252;2023-05-15T14:14:53;9.60;;;8.77;;
11338;SDS011;5724;42.684;23.252;2023-05-15T14:17:21;10.63;;;7.97;;
11338;SDS011;5724;42.684;23.252;2023-05-15T14:19:47;14.43;;;12.88;;
11338;SDS011;5724;42.684;23.252;2023-05-15T14:22:13;12.75;;;8.45;;
11338;SDS011;5724;42.684;23.252;2023-05-15T14:24:38;14.07;;;8.88;;
11338;SDS011;5724;42.684;23.252;2023-05-15T14:27:04;13.75;;;11.93;;
11338;SDS011;5724;42.684;23.252;2023-05-15T14:29:30;15.55;;;8.85;;
11338;SDS011;5724;42.684;23.252;2023-05-15T14:31:55;9.50;;;7.28;;
11338;SDS011;5724;42.684;23.252;2023-05-15T14:34:21;9.07;;;7.88;;
11338;SDS011;5724;42.684;23.252;2023-05-15T14:36:47;11.52;;;8.05;;